Nearby METAR Reports

 

KSJC - San Jose, California, USA
Distance from station: NO 14km
Uppdaterad: 2019-11-19 03:53
Few Clouds
Few Clouds
 Vind från VNV
Vind: VNV 6 km/h
Temperatur: 18°C
Daggpunkt: 8°C
Luftfuktighet: 52%
Barometer: 1010.8 hPa
Clouds: Few Clouds
Visibility: 16 km
Cloud details: Few Clouds 2134 m
2019/11/19 02:53 KSJC 190253Z 30003KT 10SM FEW070 18/08 A2985 RMK AO2 SLP107 T01780078 53001 $
KNUQ - Moffett Nas/Mtn, California, USA
Distance from station: N 14km
Uppdaterad: 2019-11-19 03:56

 
Barometer: 1011.2 hPa
2019/11/19 02:56 KNUQ 190256Z A2986 RMK AO2 SLP116 53003 PWINO $
 
KPAO - Palo Alto, California, USA
Distance from station: NNV 23km
Uppdaterad: 2019-11-19 03:47
Klart
Klart
 Vind från NV
Vind: NV 15 km/h
Temperatur: 15°C
Daggpunkt: 11°C
Luftfuktighet: 77%
Barometer: 1011.2 hPa
Clouds: Klart
Visibility: 16 km
2019/11/19 02:47 KPAO 190247Z 31008KT 10SM SKC 15/11 A2986
KRHV - San Jose/Reid, California, USA
Distance from station: ONO 19km
Uppdaterad: 2019-11-19 03:50
Klart
Klart
 Vind från calm
Vind: Vindstilla
Temperatur: 18°C
Daggpunkt: 9°C
Luftfuktighet: 56%
Barometer: 1010.8 hPa
Clouds: Klart
Visibility: 16 km
2019/11/19 02:50 KRHV 190250Z 00000KT 10SM SKC 18/09 A2985
 
KOAK - Oakland, California, USA
Distance from station: NNV 50km
Uppdaterad: 2019-11-19 03:53
Few Clouds
Few Clouds
 Vind från NV
Vind: NV 6 km/h
Temperatur: 16°C
Daggpunkt: 11°C
Luftfuktighet: 72%
Barometer: 1011.2 hPa
Clouds: Few Clouds
Visibility: 16 km
Cloud details: Few Clouds 305 m
Few Clouds 6096 m
2019/11/19 02:53 KOAK 190253Z 31003KT 10SM FEW010 FEW200 16/11 A2986 RMK AO2 SLP111 T01610106 53003
KSQL - San Carlos Airpo, California, USA
Distance from station: NV 34km
Uppdaterad: 2019-11-19 01:47
NOT Current
Haze, Few clouds
Haze, Few clouds
 Vind från calm
Vind: Vindstilla
Temperatur: 18°C
Daggpunkt: 13°C
Luftfuktighet: 73%
Barometer: 1010.8 hPa
Summering: Haze
Clouds: Few Clouds
Visibility: 10 km
Cloud details: Few Clouds 3658 m
2019/11/19 00:47 KSQL 190047Z 00000KT 6SM HZ FEW120 18/13 A2985 RMK LAST
 
KSFO - San Francisco, California, USA
Distance from station: NV 49km
Uppdaterad: 2019-11-19 03:56
Few Clouds
Few Clouds
 Vind från V
Vind: V 30 km/h
Temperatur: 14°C
Daggpunkt: 11°C
Luftfuktighet: 82%
Barometer: 1010.8 hPa
Clouds: Few Clouds
Visibility: 14 km
Cloud details: Few Clouds 6096 m
2019/11/19 02:56 KSFO 190256Z 28016KT 9SM FEW200 14/11 A2985 RMK AO2 SLP109 T01440106 53004
KE16 - San Martin, California, USA
Distance from station: OSO 43km
Uppdaterad: 2019-11-14 10:35
NOT Current
Genommulet
Genommulet
 Vind från SO
Vind: SO 11 km/h
Temperatur: 12°C
Daggpunkt: 10°C
Luftfuktighet: 88%
Barometer: 1017.6 hPa
Clouds: Genommulet
Visibility: 16 km
Cloud details: Genommulet 427 m
2019/11/14 09:35 KE16 140935Z AUTO 13006KT 10SM OVC014 12/10 A3005 RMK AO2
 
KWVI - Watsonville, California, USA
Distance from station: SSO 44km
Uppdaterad: 2019-11-19 03:53
Klart
Klart
 Vind från calm
Vind: Vindstilla
Temperatur: 13°C
Daggpunkt: 12°C
Luftfuktighet: 94%
Barometer: 1010.8 hPa
Clouds: Klart
Visibility: 16 km
2019/11/19 02:53 KWVI 190253Z AUTO 00000KT 10SM CLR 13/12 A2985 RMK AO2 SLP106 T01330117 50003
KHAF - Half Moon Bay, California, USA
Distance from station: VNV 50km
Uppdaterad: 2019-11-19 04:20
Övervägande molnigt
Övervägande molnigt
 Vind från NNV
Vind: NNV 19 km/h
Temperatur: 13°C
Daggpunkt: 12°C
Luftfuktighet: 94%
Barometer: 1012.2 hPa
Clouds: Övervägande molnigt
Visibility: 11 km
Cloud details: Övervägande molnigt 183 m
2019/11/19 03:20 KHAF 190320Z AUTO 33010KT 7SM BKN006 13/12 A2989 RMK AO2
 
KHWD - Hayward, California, USA
Distance from station: N 44km
Uppdaterad: 2019-11-19 03:54
Klart
Klart
 Vind från VNV
Vind: VNV 11 km/h
Temperatur: 16°C
Daggpunkt: 11°C
Luftfuktighet: 72%
Barometer: 1010.8 hPa
Clouds: Klart
Visibility: 16 km
2019/11/19 02:54 KHWD 190254Z 30006KT 10SM CLR 16/11 A2985 RMK AO2 SLP119 T01560111 53005
KLVK - Livermore, California, USA
Distance from station: NNO 51km
Uppdaterad: 2019-11-19 03:53
Klart
Klart
 Vind från calm
Vind: Vindstilla
Temperatur: 16°C
Daggpunkt: 7°C
Luftfuktighet: 55%
Barometer: 1010.8 hPa
Clouds: Klart
Visibility: 13 km
2019/11/19 02:53 KLVK 190253Z 00000KT 8SM CLR 16/07 A2985 RMK AO2 SLP106 T01560072 53001